Time;durP1;ratioP1;P1;durP2;ratioP2;P2;SDS_P1;SDS_P2;PMS_P1;PMS_P2;Temp;Humidity;BMP_temperature;BMP_pressure;BME280_temperature;BME280_humidity;BME280_pressure;Samples;Min_cycle;Max_cycle;Signal;HPM_P1;HPM_P2
2021/08/18 00:02:24;;;;;;;18.00;8.32;;;14.00;93.10;;;;;;6314559;22;20056;-77
2021/08/18 00:04:52;;;;;;;18.38;8.05;;;14.10;93.40;;;;;;6315760;22;20011;-79
2021/08/18 00:07:29;;;;;;;16.40;6.95;;;14.10;93.20;;;;;;6313432;22;20334;-78
2021/08/18 00:10:02;;;;;;;17.92;7.10;;;14.10;93.30;;;;;;6288397;22;20199;-77
2021/08/18 00:12:38;;;;;;;16.15;7.38;;;14.10;92.90;;;;;;6309694;22;20053;-76
2021/08/18 00:15:15;;;;;;;18.90;8.07;;;14.10;93.10;;;;;;6314891;22;20012;-78
2021/08/18 00:17:49;;;;;;;16.67;7.22;;;14.10;93.30;;;;;;6287428;22;20034;-78
2021/08/18 00:20:23;;;;;;;16.65;6.88;;;14.10;93.10;;;;;;6314001;22;20039;-76
2021/08/18 00:22:57;;;;;;;14.93;6.28;;;14.10;93.30;;;;;;6287172;22;20026;-75
2021/08/18 00:25:31;;;;;;;19.92;7.72;;;14.20;93.60;;;;;;6314072;22;20021;-76
2021/08/18 00:28:07;;;;;;;18.35;7.82;;;14.20;93.20;;;;;;6314194;22;20083;-74
2021/08/18 00:30:40;;;;;;;19.05;6.95;;;14.20;92.70;;;;;;6316685;22;20317;-77
2021/08/18 00:33:14;;;;;;;25.73;7.80;;;14.20;92.20;;;;;;6278632;22;20306;-76
2021/08/18 00:35:48;;;;;;;19.15;7.72;;;14.20;92.70;;;;;;6285742;22;20023;-75
2021/08/18 00:38:23;;;;;;;19.23;7.10;;;14.20;92.20;;;;;;6256299;22;20019;-76
2021/08/18 00:40:56;;;;;;;15.73;6.80;;;14.20;92.50;;;;;;6284282;22;20023;-76
2021/08/18 00:43:32;;;;;;;20.95;7.70;;;14.20;92.00;;;;;;6283962;22;20012;-77
2021/08/18 00:46:06;;;;;;;21.63;8.25;;;14.20;92.20;;;;;;6255659;22;20019;-78
2021/08/18 00:48:40;;;;;;;21.10;7.68;;;14.20;92.40;;;;;;6283966;22;20329;-75
2021/08/18 00:51:07;;;;;;;19.52;7.43;;;14.20;92.50;;;;;;6283438;22;20026;-77
2021/08/18 00:53:42;;;;;;;18.85;7.00;;;14.10;92.80;;;;;;6281728;22;20079;-74
2021/08/18 00:56:15;;;;;;;20.42;8.05;;;14.10;92.40;;;;;;6283016;22;20071;-78
2021/08/18 00:58:50;;;;;;;21.52;8.32;;;14.10;92.90;;;;;;6284681;22;20107;-78
2021/08/18 01:01:24;;;;;;;21.90;8.15;;;14.10;92.90;;;;;;6282704;22;20065;-74
2021/08/18 01:03:51;;;;;;;26.52;8.48;;;14.10;92.90;;;;;;6283755;22;20007;-77
2021/08/18 01:06:25;;;;;;;16.95;7.28;;;14.10;93.00;;;;;;6286012;22;20027;-76
2021/08/18 01:09:00;;;;;;;20.25;7.63;;;14.10;93.10;;;;;;6281821;22;20203;-76
2021/08/18 01:11:35;;;;;;;20.25;7.43;;;14.10;93.00;;;;;;6285722;22;20023;-78
2021/08/18 01:14:11;;;;;;;16.70;6.93;;;14.20;92.90;;;;;;6240207;22;20019;-76
2021/08/18 01:16:47;;;;;;;10.63;4.35;;;14.10;92.80;;;;;;368583;22;10022884;-78
2021/08/18 01:19:21;;;;;;;17.63;6.68;;;14.10;92.90;;;;;;6255338;23;20036;-79
2021/08/18 01:21:54;;;;;;;20.15;6.90;;;14.10;93.20;;;;;;6253047;23;20024;-78
2021/08/18 01:24:28;;;;;;;16.38;8.07;;;14.10;92.70;;;;;;6253026;23;20046;-78
2021/08/18 01:27:02;;;;;;;20.92;7.80;;;14.10;92.90;;;;;;6227300;23;20027;-78
2021/08/18 01:29:31;;;;;;;21.00;7.13;;;14.10;92.50;;;;;;6254783;23;20008;-77
2021/08/18 01:32:05;;;;;;;19.35;8.00;;;14.10;92.90;;;;;;6226500;23;20088;-79
2021/08/18 01:34:46;;;;;;;16.90;7.35;;;14.20;92.70;;;;;;6230640;22;20247;-78
2021/08/18 01:37:19;;;;;;;21.95;8.50;;;14.20;92.40;;;;;;6254586;23;20025;-79
2021/08/18 01:39:53;;;;;;;18.48;8.43;;;14.20;92.70;;;;;;6229115;23;20253;-78
2021/08/18 01:42:27;;;;;;;21.73;8.20;;;14.20;92.80;;;;;;6228708;23;20027;-77
2021/08/18 01:44:56;;;;;;;24.17;7.65;;;14.20;92.60;;;;;;6252281;23;20319;-76
2021/08/18 01:47:29;;;;;;;18.95;6.45;;;14.20;92.70;;;;;;6226548;23;20079;-78
2021/08/18 01:50:04;;;;;;;20.13;7.95;;;14.20;92.60;;;;;;6223850;23;20026;-78
2021/08/18 01:52:37;;;;;;;14.48;6.85;;;14.20;92.20;;;;;;6251806;23;20032;-78
2021/08/18 01:55:12;;;;;;;17.58;6.22;;;14.30;91.90;;;;;;6251719;23;20027;-78
2021/08/18 01:57:46;;;;;;;19.77;7.70;;;14.20;91.90;;;;;;6251139;23;20203;-79
2021/08/18 02:00:22;;;;;;;22.67;8.73;;;14.20;92.30;;;;;;6255199;23;20349;-77
2021/08/18 02:02:55;;;;;;;19.00;7.43;;;14.20;92.30;;;;;;6253213;23;20099;-78
2021/08/18 02:05:29;;;;;;;18.45;7.68;;;14.30;91.90;;;;;;6254131;23;20070;-76
2021/08/18 02:08:04;;;;;;;19.50;6.80;;;14.20;92.10;;;;;;6227521;23;20035;-77
2021/08/18 02:10:37;;;;;;;18.02;7.47;;;14.20;92.20;;;;;;6227352;23;20066;-78
2021/08/18 02:13:11;;;;;;;16.67;6.65;;;14.20;92.40;;;;;;6255099;23;20023;-78
2021/08/18 02:15:40;;;;;;;18.08;7.22;;;14.30;92.50;;;;;;6228865;23;20013;-77
2021/08/18 02:18:15;;;;;;;17.98;7.68;;;14.30;92.40;;;;;;6255044;23;20074;-78
2021/08/18 02:20:50;;;;;;;15.73;7.03;;;14.30;92.50;;;;;;6253176;23;20016;-78
2021/08/18 02:23:23;;;;;;;22.02;7.72;;;14.30;92.40;;;;;;6227591;23;20026;-76
2021/08/18 02:25:57;;;;;;;18.13;6.82;;;14.30;92.30;;;;;;6253293;23;20058;-79
2021/08/18 02:28:31;;;;;;;15.98;5.72;;;14.20;92.00;;;;;;6256317;23;20017;-77
2021/08/18 02:31:06;;;;;;;15.90;6.13;;;14.30;91.90;;;;;;6228921;23;20066;-77
2021/08/18 02:33:47;;;;;;;14.68;6.25;;;14.30;92.10;;;;;;6225570;22;20191;-78
2021/08/18 02:36:21;;;;;;;15.70;6.30;;;14.40;91.80;;;;;;6224600;23;20035;-78
2021/08/18 02:38:48;;;;;;;16.00;6.43;;;14.30;91.90;;;;;;6222697;23;20016;-77
2021/08/18 02:41:22;;;;;;;14.52;7.05;;;14.30;92.30;;;;;;6195069;23;20091;-78
2021/08/18 02:43:56;;;;;;;19.13;7.78;;;14.40;92.10;;;;;;6220778;23;20019;-76
2021/08/18 02:46:31;;;;;;;17.55;7.43;;;14.40;92.20;;;;;;6222650;23;20199;-77
2021/08/18 02:49:05;;;;;;;17.67;6.13;;;14.50;92.10;;;;;;6222458;23;20035;-77
2021/08/18 02:51:39;;;;;;;15.30;5.82;;;14.50;91.90;;;;;;6191865;23;20088;-77
2021/08/18 02:54:14;;;;;;;13.52;6.25;;;14.40;91.80;;;;;;6222793;23;20203;-78
2021/08/18 02:56:47;;;;;;;16.25;5.70;;;14.40;92.00;;;;;;6221794;23;20219;-77
2021/08/18 02:59:22;;;;;;;14.35;5.75;;;14.30;92.30;;;;;;6221561;23;20022;-77
2021/08/18 03:01:57;;;;;;;13.23;4.68;;;14.40;92.30;;;;;;6204153;23;20326;-78
2021/08/18 03:04:30;;;;;;;16.10;5.55;;;14.40;92.30;;;;;;6225887;23;20059;-79
2021/08/18 03:07:05;;;;;;;16.88;5.72;;;14.40;92.10;;;;;;6224501;23;20016;-78
2021/08/18 03:09:38;;;;;;;11.77;5.00;;;14.40;91.90;;;;;;6225846;23;20023;-79
2021/08/18 03:12:12;;;;;;;15.38;5.13;;;14.30;92.00;;;;;;6224854;23;20016;-78
2021/08/18 03:14:46;;;;;;;12.13;5.22;;;14.40;92.00;;;;;;6220135;23;20017;-78
2021/08/18 03:17:22;;;;;;;14.02;4.95;;;14.40;92.00;;;;;;6223785;23;20196;-78
2021/08/18 03:19:55;;;;;;;17.83;5.03;;;14.40;91.80;;;;;;6198883;23;20036;-78
2021/08/18 03:22:23;;;;;;;15.68;5.13;;;14.40;92.00;;;;;;6224098;23;20016;-77
2021/08/18 03:24:56;;;;;;;13.50;5.38;;;14.40;91.90;;;;;;6225169;23;20192;-79
2021/08/18 03:27:30;;;;;;;13.07;4.90;;;14.40;91.80;;;;;;6225191;23;20023;-78
2021/08/18 03:30:06;;;;;;;9.90;4.32;;;14.50;92.10;;;;;;6224332;23;20036;-78
2021/08/18 03:32:41;;;;;;;11.95;5.22;;;14.40;91.70;;;;;;6229962;22;20016;-78
2021/08/18 03:35:21;;;;;;;13.52;4.97;;;14.40;92.20;;;;;;6228243;23;20016;-77
2021/08/18 03:37:55;;;;;;;11.98;4.65;;;14.40;92.10;;;;;;6256511;23;20066;-77
2021/08/18 03:40:29;;;;;;;14.20;4.95;;;14.40;91.80;;;;;;6254523;23;20023;-79
2021/08/18 03:43:04;;;;;;;10.93;4.57;;;14.40;92.00;;;;;;6256896;23;20062;-78
2021/08/18 03:45:31;;;;;;;10.70;5.30;;;14.40;91.90;;;;;;6229612;23;20012;-78
2021/08/18 03:48:06;;;;;;;12.52;4.05;;;14.40;92.00;;;;;;6255082;23;20062;-77
2021/08/18 03:50:39;;;;;;;11.45;4.30;;;14.40;92.00;;;;;;6255433;23;20016;-79
2021/08/18 03:53:13;;;;;;;12.63;4.28;;;14.40;92.00;;;;;;6224839;23;20034;-76
2021/08/18 03:55:47;;;;;;;11.73;4.68;;;14.40;91.90;;;;;;6228641;23;20116;-77
2021/08/18 03:58:21;;;;;;;10.65;4.38;;;14.50;92.00;;;;;;6252199;23;20196;-77
2021/08/18 04:00:55;;;;;;;10.40;4.53;;;14.50;91.70;;;;;;6254185;23;20046;-76
2021/08/18 04:03:24;;;;;;;12.23;5.47;;;14.50;92.00;;;;;;6225533;23;20020;-76
2021/08/18 04:05:57;;;;;;;10.45;4.70;;;14.50;91.80;;;;;;6224835;23;20038;-77
2021/08/18 04:08:31;;;;;;;8.23;3.38;;;14.50;92.10;;;;;;6225856;23;20027;-77
2021/08/18 04:11:09;;;;;;;12.32;4.95;;;14.50;92.00;;;;;;6252434;23;20299;-79
2021/08/18 04:13:42;;;;;;;10.15;3.85;;;14.50;91.90;;;;;;6228081;23;20031;-76
2021/08/18 04:16:16;;;;;;;11.45;5.05;;;14.50;92.10;;;;;;6226978;23;20066;-77
2021/08/18 04:18:51;;;;;;;9.75;3.83;;;14.50;92.00;;;;;;6253561;23;20487;-77
2021/08/18 04:21:25;;;;;;;10.80;4.32;;;14.60;92.10;;;;;;6228605;23;20039;-77
2021/08/18 04:23:59;;;;;;;9.43;3.75;;;14.50;92.00;;;;;;6252694;23;20090;-76
2021/08/18 04:26:33;;;;;;;11.23;4.38;;;14.50;92.10;;;;;;6254082;23;20035;-77
2021/08/18 04:29:07;;;;;;;12.15;3.55;;;14.50;92.20;;;;;;6228052;23;20020;-76
2021/08/18 04:31:41;;;;;;;8.95;3.72;;;14.60;92.10;;;;;;6251798;23;20352;-77
2021/08/18 04:34:23;;;;;;;9.98;3.33;;;14.60;91.80;;;;;;6227816;22;20050;-76
2021/08/18 04:36:57;;;;;;;9.15;4.07;;;14.60;91.90;;;;;;6226738;23;20020;-78
2021/08/18 04:39:31;;;;;;;8.98;3.63;;;14.60;91.80;;;;;;6253934;23;20080;-79
2021/08/18 04:42:05;;;;;;;9.38;3.45;;;14.60;91.70;;;;;;6255352;23;20094;-80
2021/08/18 04:44:39;;;;;;;8.10;3.38;;;14.60;91.60;;;;;;6226564;23;20367;-79
2021/08/18 04:47:13;;;;;;;8.45;3.20;;;14.50;92.00;;;;;;6227222;23;20355;-79
2021/08/18 04:49:55;;;;;;;8.57;3.08;;;14.60;92.00;;;;;;6253461;23;20062;-76
2021/08/18 04:52:29;;;;;;;9.23;2.63;;;14.50;92.10;;;;;;6251251;23;20222;-76
2021/08/18 04:55:04;;;;;;;9.50;2.92;;;14.50;92.10;;;;;;6224214;23;20024;-77
2021/08/18 04:57:37;;;;;;;19.58;4.05;;;14.50;92.40;;;;;;6251297;23;20024;-78
2021/08/18 05:00:13;;;;;;;8.73;3.13;;;14.60;92.30;;;;;;6251615;23;20030;-77
2021/08/18 05:02:46;;;;;;;7.25;3.30;;;14.60;92.20;;;;;;6251798;23;20031;-76
2021/08/18 05:05:22;;;;;;;7.95;3.03;;;14.50;92.20;;;;;;6253397;23;20012;-77
2021/08/18 05:07:58;;;;;;;8.05;3.10;;;14.50;92.00;;;;;;6227030;23;20039;-78
2021/08/18 05:10:32;;;;;;;8.48;3.08;;;14.50;92.30;;;;;;6252478;23;20206;-78
2021/08/18 05:13:07;;;;;;;7.18;3.15;;;14.50;92.30;;;;;;6252453;23;20248;-78
2021/08/18 05:15:41;;;;;;;7.68;3.33;;;14.60;92.10;;;;;;6227223;23;20024;-75
2021/08/18 05:18:14;;;;;;;5.53;2.47;;;14.60;92.10;;;;;;6225447;23;20111;-77
2021/08/18 05:20:50;;;;;;;8.15;2.88;;;14.60;92.00;;;;;;6253350;23;20079;-78
2021/08/18 05:23:24;;;;;;;7.18;2.50;;;14.60;92.00;;;;;;6253718;23;20039;-78
2021/08/18 05:25:57;;;;;;;7.40;2.38;;;14.70;92.10;;;;;;6252499;23;20028;-80
2021/08/18 05:28:31;;;;;;;6.47;2.83;;;14.60;91.90;;;;;;6253474;23;20058;-77
2021/08/18 05:31:05;;;;;;;6.25;2.33;;;14.70;91.80;;;;;;6253750;23;20248;-77
2021/08/18 05:33:52;;;;;;;8.30;2.92;;;14.70;91.70;;;;;;6228669;22;20215;-78
2021/08/18 05:36:28;;;;;;;8.60;3.38;;;14.70;91.70;;;;;;6253428;23;20329;-77
2021/08/18 05:39:01;;;;;;;6.65;3.05;;;14.70;91.80;;;;;;6226298;23;20027;-77
2021/08/18 05:41:35;;;;;;;8.73;2.60;;;14.60;91.80;;;;;;6253715;23;20016;-77
2021/08/18 05:44:09;;;;;;;9.18;2.90;;;14.70;92.10;;;;;;6253626;23;20071;-77
2021/08/18 05:46:43;;;;;;;6.25;3.05;;;14.70;91.70;;;;;;6225301;23;20023;-76
2021/08/18 05:49:21;;;;;;;8.55;2.63;;;14.70;92.10;;;;;;6253601;23;20036;-77
2021/08/18 05:51:56;;;;;;;7.97;2.78;;;14.70;91.80;;;;;;6253498;23;20058;-75
2021/08/18 05:54:29;;;;;;;9.88;3.10;;;14.70;91.90;;;;;;6252290;23;20096;-76
2021/08/18 05:57:03;;;;;;;8.50;3.50;;;14.80;91.40;;;;;;6253657;23;20027;-78
2021/08/18 05:59:37;;;;;;;6.68;2.80;;;14.90;91.50;;;;;;6225808;23;20303;-79
2021/08/18 06:02:11;;;;;;;8.63;2.75;;;14.90;91.50;;;;;;6254340;23;20042;-79
2021/08/18 06:04:45;;;;;;;7.68;2.65;;;14.90;90.90;;;;;;6251499;23;20040;-80
2021/08/18 06:07:14;;;;;;;8.40;2.63;;;14.90;91.30;;;;;;6250929;23;20062;-76
2021/08/18 06:09:47;;;;;;;7.32;2.97;;;14.90;91.30;;;;;;6253164;23;20236;-75
2021/08/18 06:12:21;;;;;;;6.93;3.40;;;15.00;91.60;;;;;;6225140;23;20355;-76
2021/08/18 06:14:48;;;;;;;7.43;3.33;;;14.90;91.40;;;;;;6253018;23;20019;-78
2021/08/18 06:17:22;;;;;;;6.43;2.63;;;14.90;90.90;;;;;;6252290;23;20039;-78
2021/08/18 06:19:56;;;;;;;6.43;2.80;;;14.90;90.70;;;;;;6253714;23;20046;-76
2021/08/18 06:22:32;;;;;;;9.35;3.03;;;15.00;91.10;;;;;;6254305;23;20044;-76
2021/08/18 06:25:06;;;;;;;5.53;2.53;;;15.10;91.40;;;;;;6251335;23;20008;-76
2021/08/18 06:27:40;;;;;;;8.00;3.03;;;15.20;90.70;;;;;;6253218;23;20097;-76
2021/08/18 06:30:14;;;;;;;5.70;2.50;;;15.40;90.20;;;;;;6225568;23;20035;-78
2021/08/18 06:32:48;;;;;;;5.78;2.78;;;15.30;90.20;;;;;;6225601;23;20088;-76
2021/08/18 06:35:22;;;;;;;6.60;2.35;;;15.30;89.90;;;;;;6229702;22;20093;-78
2021/08/18 06:37:58;;;;;;;5.72;2.47;;;15.30;90.40;;;;;;6255613;23;20177;-79
2021/08/18 06:40:31;;;;;;;7.13;2.70;;;15.40;90.20;;;;;;6254958;23;20215;-77
2021/08/18 06:43:05;;;;;;;6.57;3.13;;;15.40;90.60;;;;;;6255195;23;20016;-78
2021/08/18 06:45:39;;;;;;;7.13;2.47;;;15.40;90.10;;;;;;6254190;23;20027;-76
2021/08/18 06:48:13;;;;;;;6.97;2.88;;;15.40;89.70;;;;;;6253913;23;20090;-78
2021/08/18 06:50:47;;;;;;;6.65;2.47;;;15.40;90.20;;;;;;6228709;23;20034;-77
2021/08/18 06:53:23;;;;;;;5.90;2.30;;;15.40;90.30;;;;;;6226289;23;20339;-80
2021/08/18 06:55:56;;;;;;;5.95;2.13;;;15.30;90.20;;;;;;6229290;23;20016;-78
2021/08/18 06:58:30;;;;;;;6.30;2.85;;;15.30;90.10;;;;;;6254697;23;20085;-78
2021/08/18 07:01:05;;;;;;;6.05;2.25;;;15.40;89.90;;;;;;6228644;23;20020;-79
2021/08/18 07:03:45;;;;;;;7.72;2.10;;;15.40;90.10;;;;;;6229045;23;20336;-77
2021/08/18 07:06:19;;;;;;;5.40;2.25;;;15.50;90.00;;;;;;6228351;23;20066;-78
2021/08/18 07:08:55;;;;;;;4.57;2.05;;;15.40;90.10;;;;;;6227696;23;20084;-78
2021/08/18 07:11:29;;;;;;;4.20;2.15;;;15.40;90.30;;;;;;6225114;23;20038;-79
2021/08/18 07:14:03;;;;;;;5.68;2.05;;;15.40;90.00;;;;;;6225449;23;20035;-76
2021/08/18 07:16:37;;;;;;;5.45;2.35;;;15.40;90.20;;;;;;6226080;23;20210;-77
2021/08/18 07:19:11;;;;;;;4.22;1.92;;;15.50;90.10;;;;;;6226681;23;20314;-80
2021/08/18 07:21:45;;;;;;;9.15;2.50;;;15.40;90.30;;;;;;6255091;23;20016;-78
2021/08/18 07:24:14;;;;;;;4.68;1.80;;;15.30;91.10;;;;;;6227227;23;20058;-78
2021/08/18 07:26:49;;;;;;;3.03;1.20;;;15.30;90.70;;;;;;6226888;23;20325;-77
2021/08/18 07:29:22;;;;;;;4.47;1.90;;;15.50;90.70;;;;;;6226450;23;20019;-77
2021/08/18 07:31:56;;;;;;;4.47;1.33;;;15.40;90.70;;;;;;6254467;23;20071;-79
2021/08/18 07:34:36;;;;;;;3.10;1.50;;;15.40;90.90;;;;;;6222473;22;20033;-79
2021/08/18 07:37:10;;;;;;;6.10;2.50;;;15.40;91.20;;;;;;6222793;23;20219;-75
2021/08/18 07:39:46;;;;;;;6.22;1.50;;;15.50;91.30;;;;;;6221876;23;20023;-77
2021/08/18 07:42:13;;;;;;;3.17;1.50;;;15.60;90.70;;;;;;6222515;23;20105;-77
2021/08/18 07:44:47;;;;;;;3.10;1.55;;;15.60;91.10;;;;;;6198550;23;20063;-78
2021/08/18 07:47:22;;;;;;;2.63;1.40;;;15.60;91.30;;;;;;6196037;23;20031;-78
2021/08/18 07:49:55;;;;;;;3.13;1.30;;;15.70;91.40;;;;;;6220054;23;20338;-79
2021/08/18 07:52:29;;;;;;;4.65;1.75;;;15.80;90.80;;;;;;6196109;23;20078;-79
2021/08/18 07:55:06;;;;;;;3.95;1.65;;;15.70;90.70;;;;;;6221995;23;20025;-77
2021/08/18 07:57:39;;;;;;;2.92;1.30;;;16.00;90.40;;;;;;6223946;23;20326;-78
2021/08/18 08:00:17;;;;;;;2.90;1.23;;;16.10;90.50;;;;;;6197108;23;20071;-79
2021/08/18 08:02:51;;;;;;;2.97;1.20;;;16.00;90.20;;;;;;6214647;23;20031;-77
2021/08/18 08:05:25;;;;;;;2.38;0.95;;;16.00;90.60;;;;;;6218392;23;20035;-77
2021/08/18 08:07:59;;;;;;;2.28;1.00;;;15.90;90.00;;;;;;6223768;23;20066;-77
2021/08/18 08:10:35;;;;;;;2.63;1.23;;;16.10;90.40;;;;;;6198324;23;20021;-78
2021/08/18 08:13:09;;;;;;;3.40;1.20;;;16.30;90.50;;;;;;6197650;23;20050;-78
2021/08/18 08:15:43;;;;;;;2.60;1.00;;;16.30;89.50;;;;;;6196448;23;20036;-79
2021/08/18 08:18:16;;;;;;;2.75;1.27;;;16.50;89.70;;;;;;6194994;23;20394;-79
2021/08/18 08:20:50;;;;;;;2.95;1.15;;;16.80;88.80;;;;;;6198229;23;20218;-77
2021/08/18 08:23:25;;;;;;;2.20;0.93;;;16.90;88.30;;;;;;6196457;23;20035;-79
2021/08/18 08:26:00;;;;;;;1.80;0.88;;;17.10;88.20;;;;;;6223249;23;20027;-78
2021/08/18 08:28:33;;;;;;;3.40;0.98;;;17.20;87.60;;;;;;6224008;23;20028;-78
2021/08/18 08:31:07;;;;;;;2.33;1.10;;;17.20;87.20;;;;;;6195986;23;20021;-77
2021/08/18 08:33:41;;;;;;;3.65;1.48;;;17.40;85.80;;;;;;6233239;22;20032;-79
2021/08/18 08:36:22;;;;;;;2.72;1.13;;;17.50;85.60;;;;;;6229174;23;20065;-79
2021/08/18 08:38:56;;;;;;;3.42;1.25;;;17.50;85.90;;;;;;6249448;23;20084;-78
2021/08/18 08:41:33;;;;;;;3.08;1.52;;;17.40;86.00;;;;;;6225137;23;20042;-76
2021/08/18 08:44:07;;;;;;;5.93;1.40;;;17.30;86.30;;;;;;6254536;23;20083;-78
2021/08/18 08:46:41;;;;;;;2.13;1.02;;;17.20;86.70;;;;;;6250865;23;20062;-78
2021/08/18 08:49:09;;;;;;;2.45;1.15;;;17.00;86.10;;;;;;6252387;23;20306;-79
2021/08/18 08:51:45;;;;;;;3.05;1.40;;;16.90;86.60;;;;;;6252049;23;20024;-78
2021/08/18 08:54:19;;;;;;;4.55;1.30;;;16.90;86.50;;;;;;6253558;23;20118;-76
2021/08/18 08:56:48;;;;;;;4.38;1.63;;;17.00;86.40;;;;;;6225865;23;20016;-78
2021/08/18 08:59:22;;;;;;;2.53;1.30;;;17.20;86.50;;;;;;6252369;23;20319;-78
2021/08/18 09:02:01;;;;;;;3.38;1.58;;;17.40;85.40;;;;;;6250996;23;20367;-78
2021/08/18 09:04:36;;;;;;;2.35;1.63;;;17.30;85.40;;;;;;6225619;23;20331;-77
2021/08/18 09:07:13;;;;;;;2.97;1.42;;;17.20;85.30;;;;;;6252896;23;20068;-78
2021/08/18 09:09:52;;;;;;;3.03;1.35;;;17.60;84.70;;;;;;6252193;23;20066;-79
2021/08/18 09:12:31;;;;;;;4.25;1.30;;;17.60;84.60;;;;;;6254316;23;20035;-77
2021/08/18 09:15:15;;;;;;;2.70;1.23;;;17.60;84.30;;;;;;6221733;23;20223;-78
2021/08/18 09:17:49;;;;;;;2.25;1.30;;;17.60;84.60;;;;;;6226431;23;20022;-77
2021/08/18 09:20:25;;;;;;;3.67;1.75;;;17.90;83.60;;;;;;6252133;23;20023;-78
2021/08/18 09:23:01;;;;;;;2.28;1.27;;;18.20;82.80;;;;;;6250850;23;20036;-77
2021/08/18 09:25:38;;;;;;;2.00;1.30;;;18.60;81.80;;;;;;6253383;23;20039;-80
2021/08/18 09:28:21;;;;;;;1.95;1.08;;;18.60;81.80;;;;;;6254344;23;20013;-78
2021/08/18 09:30:58;;;;;;;2.55;1.08;;;18.90;79.70;;;;;;6252663;23;20510;-79
2021/08/18 09:33:35;;;;;;;4.18;1.10;;;19.10;80.60;;;;;;6227174;22;20038;-80
2021/08/18 09:36:32;;;;;;;1.92;1.05;;;19.30;78.30;;;;;;6227667;23;20317;-79
2021/08/18 09:39:20;;;;;;;2.22;1.05;;;19.50;77.40;;;;;;6225911;23;20312;-80
2021/08/18 09:41:54;;;;;;;1.88;0.98;;;19.80;77.20;;;;;;6254236;23;20016;-78
2021/08/18 09:44:29;;;;;;;2.03;1.25;;;19.80;76.60;;;;;;6252737;23;20070;-78
2021/08/18 09:47:06;;;;;;;1.90;1.00;;;19.50;77.60;;;;;;6224971;23;20024;-78
2021/08/18 09:49:39;;;;;;;2.40;1.10;;;19.00;78.10;;;;;;6227171;23;20044;-79
2021/08/18 09:52:21;;;;;;;3.63;1.45;;;18.90;78.00;;;;;;6252987;23;20058;-78
2021/08/18 09:55:03;;;;;;;3.60;1.50;;;18.70;78.30;;;;;;6227106;23;20020;-76
2021/08/18 09:57:37;;;;;;;2.33;1.23;;;18.90;78.70;;;;;;6252104;23;20020;-79
2021/08/18 10:00:13;;;;;;;2.80;1.40;;;19.40;78.30;;;;;;6253453;23;20038;-80
2021/08/18 10:02:48;;;;;;;1.67;0.93;;;19.30;77.80;;;;;;6252926;23;20288;-78
2021/08/18 10:05:22;;;;;;;2.45;1.13;;;19.20;78.00;;;;;;6253426;23;20016;-79
2021/08/18 10:07:56;;;;;;;2.85;1.17;;;19.10;78.00;;;;;;6252030;23;20027;-78
2021/08/18 10:10:31;;;;;;;2.00;0.90;;;18.90;78.30;;;;;;6253948;23;20024;-76
2021/08/18 10:13:07;;;;;;;2.50;1.05;;;19.10;78.30;;;;;;6256935;23;20016;-79
2021/08/18 10:15:42;;;;;;;1.80;0.90;;;19.50;78.20;;;;;;6225997;23;20391;-80
2021/08/18 10:18:28;;;;;;;2.58;1.15;;;19.80;77.10;;;;;;6255087;23;20035;-80
2021/08/18 10:21:03;;;;;;;4.63;0.85;;;19.50;76.00;;;;;;6253793;23;20044;-80
2021/08/18 10:23:42;;;;;;;2.60;1.58;;;19.00;77.40;;;;;;6253890;23;20022;-79
2021/08/18 10:27:01;;;;;;;1.80;0.57;;;18.90;78.40;;;;;;6255217;23;20031;-78
2021/08/18 10:29:39;;;;;;;3.15;1.42;;;18.70;78.80;;;;;;6227159;23;20026;-78
2021/08/18 10:32:19;;;;;;;1.45;0.80;;;18.50;79.70;;;;;;6227427;23;20035;-78
2021/08/18 10:35:49;;;;;;;2.17;0.90;;;18.50;80.20;;;;;;6256315;22;20024;-78
2021/08/18 10:38:37;;;;;;;1.33;0.80;;;18.40;80.60;;;;;;6254485;23;20072;-78
2021/08/18 10:41:10;;;;;;;2.63;1.08;;;18.40;80.90;;;;;;6253652;23;20016;-76
2021/08/18 10:44:00;;;;;;;1.80;0.88;;;18.20;81.20;;;;;;6252743;23;20024;-78
2021/08/18 10:47:18;;;;;;;2.30;1.00;;;18.50;80.70;;;;;;6254252;23;20026;-79
2021/08/18 10:49:54;;;;;;;1.38;0.70;;;19.00;78.40;;;;;;6252949;23;20355;-78
2021/08/18 10:52:51;;;;;;;2.72;1.10;;;19.30;78.30;;;;;;6256278;23;20035;-79
2021/08/18 10:55:35;;;;;;;1.77;0.85;;;19.60;77.00;;;;;;6255457;23;20078;-79
2021/08/18 10:58:28;;;;;;;2.20;1.15;;;19.60;76.90;;;;;;6255190;23;20058;-80
2021/08/18 11:01:01;;;;;;;1.48;0.90;;;19.60;76.90;;;;;;6255821;23;20035;-78
2021/08/18 11:03:35;;;;;;;3.47;0.80;;;19.70;76.70;;;;;;6224421;23;20085;-76
2021/08/18 11:06:12;;;;;;;1.83;1.02;;;19.90;76.30;;;;;;6254166;23;20046;-78
2021/08/18 11:08:50;;;;;;;3.65;0.88;;;19.80;76.60;;;;;;6255416;23;20031;-77
2021/08/18 11:11:23;;;;;;;1.77;0.82;;;19.60;77.00;;;;;;6253550;23;20051;-78
2021/08/18 11:14:09;;;;;;;3.10;1.05;;;19.50;77.30;;;;;;6253130;23;20028;-78
2021/08/18 11:16:43;;;;;;;2.88;1.08;;;19.30;77.20;;;;;;6256450;23;20055;-79
2021/08/18 11:19:17;;;;;;;2.00;1.08;;;19.10;78.10;;;;;;6255250;23;20030;-78
2021/08/18 11:21:52;;;;;;;3.05;1.20;;;19.00;78.50;;;;;;6254685;23;20016;-78
2021/08/18 11:24:27;;;;;;;2.25;1.10;;;19.00;78.00;;;;;;6257111;23;20030;-77
2021/08/18 11:27:00;;;;;;;1.70;0.90;;;18.90;77.90;;;;;;6257881;23;20367;-78
2021/08/18 11:29:35;;;;;;;2.10;1.05;;;18.90;78.50;;;;;;6258297;23;20058;-78
2021/08/18 11:32:09;;;;;;;2.65;1.30;;;19.00;78.80;;;;;;6257438;23;20022;-79
2021/08/18 11:34:50;;;;;;;1.85;1.05;;;19.20;78.50;;;;;;6259478;22;20020;-77
2021/08/18 11:37:26;;;;;;;2.30;0.90;;;19.30;78.30;;;;;;6256573;23;20019;-78
2021/08/18 11:40:02;;;;;;;2.13;0.73;;;19.30;78.10;;;;;;6256464;23;20023;-77
2021/08/18 11:42:44;;;;;;;1.10;0.77;;;19.10;78.40;;;;;;6257691;23;20309;-80
2021/08/18 11:45:18;;;;;;;2.10;0.95;;;19.20;78.30;;;;;;6232310;23;20361;-80
2021/08/18 11:47:52;;;;;;;0.80;0.57;;;19.30;78.40;;;;;;6230922;23;20094;-77
2021/08/18 11:50:26;;;;;;;2.03;0.90;;;19.20;78.30;;;;;;6231352;23;20086;-77
2021/08/18 11:53:02;;;;;;;1.67;0.77;;;19.30;78.60;;;;;;6230877;23;20102;-78
2021/08/18 11:55:36;;;;;;;1.58;0.60;;;19.60;76.60;;;;;;6257348;23;20066;-78
2021/08/18 11:58:10;;;;;;;0.77;0.50;;;19.90;76.90;;;;;;6228031;23;20258;-76
2021/08/18 12:00:45;;;;;;;2.45;0.70;;;19.80;75.70;;;;;;6228727;23;20378;-76
2021/08/18 12:03:24;;;;;;;1.25;0.57;;;19.50;76.50;;;;;;6229602;23;20027;-78
2021/08/18 12:06:00;;;;;;;1.17;0.52;;;19.80;75.90;;;;;;6255858;23;20024;-79
2021/08/18 12:08:41;;;;;;;1.50;0.60;;;20.50;74.10;;;;;;6256478;23;20042;-78
2021/08/18 12:11:14;;;;;;;;;;;22.20;69.20;;;;;;6257678;23;20224;-80
2021/08/18 12:13:48;;;;;;;1.45;0.70;;;21.90;68.80;;;;;;6256732;23;19938;-76
2021/08/18 12:16:30;;;;;;;1.05;0.60;;;21.30;70.20;;;;;;6256884;23;20073;-79
2021/08/18 12:19:24;;;;;;;1.05;0.52;;;22.10;68.40;;;;;;6230610;23;20043;-79
2021/08/18 12:22:10;;;;;;;1.45;0.60;;;23.50;65.20;;;;;;6227603;23;20027;-80
2021/08/18 12:24:47;;;;;;;3.10;0.40;;;24.80;57.80;;;;;;6228786;23;20073;-77
2021/08/18 12:27:23;;;;;;;0.70;0.40;;;25.00;57.80;;;;;;6229974;23;20012;-79
2021/08/18 12:30:06;;;;;;;0.80;0.40;;;24.50;57.80;;;;;;6255672;23;20031;-79
2021/08/18 12:32:41;;;;;;;1.15;0.63;;;23.00;61.40;;;;;;6253440;23;20365;-77
2021/08/18 12:35:25;;;;;;;1.17;0.68;;;23.00;62.60;;;;;;6227895;22;20038;-76
2021/08/18 12:38:06;;;;;;;1.00;0.50;;;22.60;63.60;;;;;;6228527;23;20031;-79
2021/08/18 12:40:42;;;;;;;2.08;0.57;;;21.90;65.20;;;;;;6231804;23;20027;-79
2021/08/18 12:43:20;;;;;;;0.82;0.50;;;21.30;66.60;;;;;;6257991;23;20064;-76
2021/08/18 12:45:53;;;;;;;0.80;0.47;;;21.00;68.10;;;;;;6233516;23;20361;-77
2021/08/18 12:48:29;;;;;;;0.52;0.40;;;20.70;69.00;;;;;;6254733;23;20043;-78
2021/08/18 12:51:12;;;;;;;1.77;0.85;;;20.70;70.10;;;;;;6226115;23;20027;-77
2021/08/18 12:53:45;;;;;;;2.58;0.50;;;20.80;71.00;;;;;;6226629;23;20054;-76
2021/08/18 12:56:21;;;;;;;0.75;0.50;;;20.80;69.70;;;;;;6252904;23;20031;-78
2021/08/18 12:58:54;;;;;;;1.00;0.50;;;20.80;69.40;;;;;;6226312;23;20064;-76
2021/08/18 13:01:28;;;;;;;1.15;0.50;;;21.00;69.40;;;;;;6226399;23;20050;-79
2021/08/18 13:04:02;;;;;;;0.90;0.60;;;21.10;68.80;;;;;;6251255;23;20206;-76
2021/08/18 13:06:30;;;;;;;1.02;0.40;;;20.90;68.20;;;;;;6252099;23;20220;-78
2021/08/18 13:09:04;;;;;;;1.10;0.60;;;20.70;68.90;;;;;;6253011;23;20015;-77
2021/08/18 13:11:39;;;;;;;2.38;0.63;;;20.50;69.80;;;;;;6253911;23;20031;-78
2021/08/18 13:14:12;;;;;;;1.33;0.65;;;20.60;70.40;;;;;;6225760;23;20227;-77
2021/08/18 13:16:47;;;;;;;1.30;0.60;;;20.70;69.20;;;;;;6228091;23;20070;-77
2021/08/18 13:19:20;;;;;;;1.48;0.75;;;20.80;68.80;;;;;;6254143;23;20016;-78
2021/08/18 13:21:55;;;;;;;0.52;0.52;;;20.90;67.60;;;;;;6228439;23;20031;-80
2021/08/18 13:24:28;;;;;;;1.65;0.80;;;21.10;67.60;;;;;;6228678;23;20028;-77
2021/08/18 13:27:05;;;;;;;0.93;0.60;;;21.30;67.70;;;;;;6255991;23;20082;-77